createdAt,value
2023-03-20T00:03:42.696Z,7.48
2023-03-20T00:10:34.455Z,7.15
2023-03-20T00:17:23.072Z,7.21
2023-03-20T00:24:03.807Z,7.12
2023-03-20T00:30:56.748Z,6.94
2023-03-20T00:37:44.897Z,6.89
2023-03-20T00:44:35.529Z,6.65
2023-03-20T00:55:42.145Z,6.50
2023-03-20T01:02:42.878Z,6.38
2023-03-20T01:09:36.735Z,6.41
2023-03-20T01:16:32.019Z,6.42
2023-03-20T01:23:19.838Z,6.46
2023-03-20T01:30:19.770Z,6.50
2023-03-20T01:37:32.388Z,6.48
2023-03-20T01:44:30.923Z,6.48
2023-03-20T01:55:41.621Z,6.49
2023-03-20T02:02:37.983Z,6.45
2023-03-20T02:09:32.600Z,6.32
2023-03-20T02:16:22.032Z,6.08
2023-03-20T02:23:57.256Z,5.94
2023-03-20T02:30:59.626Z,5.84
2023-03-20T02:38:10.739Z,5.77
2023-03-20T02:45:09.348Z,5.74
2023-03-20T02:52:08.200Z,5.62
2023-03-20T02:59:17.628Z,5.53
2023-03-20T03:06:23.183Z,5.39
2023-03-20T03:17:46.236Z,5.18
2023-03-20T03:24:42.075Z,5.02
2023-03-20T03:36:14.377Z,5.01
2023-03-20T03:43:06.896Z,5.01
2023-03-20T03:50:05.954Z,4.95
2023-03-20T03:56:50.185Z,4.39
2023-03-20T04:03:47.910Z,4.25
2023-03-20T04:10:40.942Z,4.16
2023-03-20T04:17:36.031Z,4.25
2023-03-20T04:24:30.661Z,4.09
2023-03-20T04:36:02.098Z,4.24
2023-03-20T04:42:55.304Z,4.16
2023-03-20T04:49:36.735Z,3.94
2023-03-20T04:57:01.327Z,3.47
2023-03-20T05:04:00.788Z,3.50
2023-03-20T05:10:57.499Z,3.60
2023-03-20T05:27:12.936Z,3.86
2023-03-20T05:38:43.721Z,3.52
2023-03-20T05:45:53.996Z,3.64
2023-03-20T05:53:10.614Z,3.86
2023-03-20T06:09:33.819Z,4.67
2023-03-20T06:16:25.784Z,4.79
2023-03-20T06:23:18.425Z,4.85
2023-03-20T06:30:08.205Z,5.04
2023-03-20T06:41:41.631Z,5.63
2023-03-20T06:48:32.131Z,6.11
2023-03-20T06:59:39.458Z,6.83
2023-03-20T07:06:34.144Z,7.21
2023-03-20T07:13:14.748Z,7.49
2023-03-20T07:20:04.763Z,7.93
2023-03-20T07:26:52.928Z,8.46
2023-03-20T07:33:41.618Z,9.01
2023-03-20T07:40:40.371Z,10.03
2023-03-20T07:47:40.856Z,10.52
2023-03-20T07:54:22.246Z,10.85
2023-03-20T08:01:16.760Z,11.07
2023-03-20T08:08:10.725Z,11.27
2023-03-20T08:14:57.766Z,11.34
2023-03-20T08:21:52.403Z,11.55
2023-03-20T08:28:51.424Z,11.55
2023-03-20T08:35:46.498Z,11.86
2023-03-20T08:42:33.662Z,12.20
2023-03-20T08:49:29.217Z,12.46
2023-03-20T08:56:16.588Z,12.95
2023-03-20T09:03:12.407Z,13.26
2023-03-20T09:10:00.894Z,13.44
2023-03-20T09:21:18.501Z,13.90
2023-03-20T09:28:01.014Z,14.18
2023-03-20T09:34:55.673Z,14.46
2023-03-20T09:41:57.040Z,14.47
2023-03-20T09:48:59.486Z,14.56
2023-03-20T09:55:53.985Z,15.04
2023-03-20T10:02:49.763Z,15.11
2023-03-20T10:09:38.252Z,15.31
2023-03-20T10:16:38.060Z,15.35
2023-03-20T10:23:37.871Z,15.46
2023-03-20T10:30:32.182Z,15.67
2023-03-20T10:41:55.051Z,15.80
2023-03-20T10:48:53.730Z,15.86
2023-03-20T10:55:46.444Z,15.87
2023-03-20T11:02:41.028Z,15.87
2023-03-20T11:09:24.996Z,15.77
2023-03-20T11:16:19.488Z,15.89
2023-03-20T11:23:08.451Z,16.13
2023-03-20T11:30:05.367Z,16.00
2023-03-20T11:41:20.342Z,15.91
2023-03-20T11:48:20.914Z,15.93
2023-03-20T11:55:24.025Z,16.26
2023-03-20T12:02:24.215Z,16.44
2023-03-20T12:09:25.860Z,16.55
2023-03-20T12:16:25.153Z,16.61
2023-03-20T12:23:19.153Z,16.71
2023-03-20T12:30:18.243Z,16.65
2023-03-20T12:41:45.173Z,16.83
2023-03-20T12:48:54.700Z,16.83
2023-03-20T12:55:59.307Z,17.07
2023-03-20T13:02:55.795Z,17.21
2023-03-20T13:10:04.811Z,17.03
2023-03-20T13:21:12.459Z,17.82
2023-03-20T13:28:12.931Z,17.86
2023-03-20T13:35:24.433Z,18.10
2023-03-20T13:42:21.332Z,18.57
2023-03-20T13:49:17.528Z,18.57
2023-03-20T13:56:18.075Z,18.30
2023-03-20T14:03:14.191Z,18.14
2023-03-20T14:10:36.364Z,18.02
2023-03-20T14:21:48.201Z,18.29
2023-03-20T14:28:54.475Z,18.55
2023-03-20T14:35:45.919Z,18.73
2023-03-20T14:42:49.674Z,18.48
2023-03-20T14:49:53.195Z,18.29
2023-03-20T14:56:35.777Z,18.48
2023-03-20T15:03:24.445Z,18.52
2023-03-20T15:10:13.564Z,18.54
2023-03-20T15:21:37.077Z,18.36
2023-03-20T15:28:27.788Z,18.18
2023-03-20T15:35:23.501Z,17.83
2023-03-20T15:42:15.719Z,17.82
2023-03-20T15:49:18.746Z,17.76
2023-03-20T15:56:17.690Z,17.72
2023-03-20T16:03:02.139Z,17.75
2023-03-20T16:10:00.052Z,17.51
2023-03-20T16:21:08.812Z,17.31
2023-03-20T16:28:07.315Z,17.11
2023-03-20T16:34:58.820Z,16.86
2023-03-20T16:42:24.133Z,16.69
2023-03-20T16:50:07.457Z,16.35
2023-03-20T16:56:57.759Z,16.11
2023-03-20T17:03:56.000Z,15.91
2023-03-20T17:10:39.740Z,15.59
2023-03-20T17:21:54.858Z,15.29
2023-03-20T17:28:38.352Z,14.98
2023-03-20T17:35:26.166Z,14.67
2023-03-20T17:42:20.325Z,14.49
2023-03-20T17:49:14.338Z,14.39
2023-03-20T17:56:06.447Z,14.15
2023-03-20T18:03:04.521Z,14.02
2023-03-20T18:09:52.918Z,13.90
2023-03-20T18:16:50.499Z,13.85
2023-03-20T18:23:40.661Z,13.77
2023-03-20T18:30:39.537Z,13.69
2023-03-20T18:41:50.045Z,13.56
2023-03-20T18:48:56.869Z,13.50
2023-03-20T18:55:45.569Z,13.59
2023-03-20T19:02:45.001Z,13.35
2023-03-20T19:09:35.228Z,13.30
2023-03-20T19:16:28.009Z,13.29
2023-03-20T19:23:15.347Z,13.19
2023-03-20T19:30:19.837Z,13.08
2023-03-20T19:41:29.476Z,12.94
2023-03-20T19:48:43.268Z,12.68
2023-03-20T19:55:42.390Z,12.61
2023-03-20T20:02:40.905Z,12.53
2023-03-20T20:09:24.553Z,12.39
2023-03-20T20:16:19.895Z,12.37
2023-03-20T20:23:19.252Z,12.40
2023-03-20T20:30:20.329Z,12.40
2023-03-20T20:41:23.040Z,12.40
2023-03-20T20:48:19.574Z,12.48
2023-03-20T20:55:21.732Z,12.48
2023-03-20T21:02:18.870Z,12.34
2023-03-20T21:09:07.235Z,12.20
2023-03-20T21:16:00.354Z,12.13
2023-03-20T21:22:49.271Z,12.23
2023-03-20T21:29:47.616Z,12.25
2023-03-20T21:40:54.886Z,12.25
2023-03-20T21:48:28.577Z,12.23
2023-03-20T22:02:21.365Z,12.09
2023-03-20T22:17:22.023Z,12.08
2023-03-20T22:24:14.597Z,12.01
2023-03-20T22:49:20.296Z,11.60
2023-03-20T22:56:09.080Z,11.34
2023-03-20T23:03:37.737Z,11.28
2023-03-20T23:10:14.422Z,11.15
2023-03-20T23:21:34.760Z,11.34
2023-03-20T23:28:21.245Z,11.45
2023-03-20T23:35:14.377Z,11.30
2023-03-20T23:42:29.666Z,10.00
2023-03-20T23:49:11.242Z,9.49
2023-03-20T23:56:04.376Z,9.47
